Open Full Screen Window  High Contrast Mode
Wind Gusting 00 knots
05
September 25, 2018 10:45 AM EDT
Weather Information
Wind Direction
  200 °
Wind Speed
  05 kt (6 mph)
Wind Gust
  00 kt (0 mph)
Altimeter
30.09 in
Visibility
10 SM
Temperature
22° C
72° F
Dewpoint
21° C
70° F
Humidity
94%
1hr Rain Fall
00.00 in.
24hr Rain Fall
00.94 in.
Sky Condition
Overcast @ 3,000 ft
Broken @ 1,500 ft
Scattered @ 1,000 ft
MVFR

METAR KI69 251445Z AUTO 20005KT 10SM SCT010 BKN015 OVC030 22/21 A3009 RMK AO2 T02180206

FAA Disclaimer: The data displayed is for advisory purposes only and is not to be used for flight planning or operations.